sensor_id;sensor_type;location;lat;lon;timestamp;temperature;humidity
58983;DHT22;44771;49.982;8.560;2022-12-11T00:04:21;-4.60;99.90
58983;DHT22;44771;49.982;8.560;2022-12-11T00:09:23;-4.50;99.90
58983;DHT22;44771;49.982;8.560;2022-12-11T00:14:25;-4.40;99.90
58983;DHT22;44771;49.982;8.560;2022-12-11T00:19:28;-4.30;99.90
58983;DHT22;44771;49.982;8.560;2022-12-11T00:24:30;-4.30;99.90
58983;DHT22;44771;49.982;8.560;2022-12-11T00:29:32;-4.20;99.90
58983;DHT22;44771;49.982;8.560;2022-12-11T00:34:35;-4.20;99.90
58983;DHT22;44771;49.982;8.560;2022-12-11T00:39:36;-4.00;99.90
58983;DHT22;44771;49.982;8.560;2022-12-11T00:44:38;-3.70;99.90
58983;DHT22;44771;49.982;8.560;2022-12-11T00:49:41;-3.80;99.90
58983;DHT22;44771;49.982;8.560;2022-12-11T00:54:50;-3.90;99.90
58983;DHT22;44771;49.982;8.560;2022-12-11T00:59:51;-3.60;99.90
58983;DHT22;44771;49.982;8.560;2022-12-11T01:04:55;-3.50;99.90
58983;DHT22;44771;49.982;8.560;2022-12-11T01:09:56;-3.40;99.90
58983;DHT22;44771;49.982;8.560;2022-12-11T01:14:58;-3.20;99.90
58983;DHT22;44771;49.982;8.560;2022-12-11T01:20:01;-3.10;99.90
58983;DHT22;44771;49.982;8.560;2022-12-11T01:25:03;-3.00;99.90
58983;DHT22;44771;49.982;8.560;2022-12-11T01:30:07;-3.00;99.90
58983;DHT22;44771;49.982;8.560;2022-12-11T01:35:11;-3.00;99.90
58983;DHT22;44771;49.982;8.560;2022-12-11T01:40:15;-3.00;99.90
58983;DHT22;44771;49.982;8.560;2022-12-11T01:45:42;-3.00;99.90
58983;DHT22;44771;49.982;8.560;2022-12-11T01:50:48;-2.90;99.90
58983;DHT22;44771;49.982;8.560;2022-12-11T01:55:52;-2.90;99.90
58983;DHT22;44771;49.982;8.560;2022-12-11T02:00:56;-2.70;99.90
58983;DHT22;44771;49.982;8.560;2022-12-11T02:06:00;-2.80;99.90
58983;DHT22;44771;49.982;8.560;2022-12-11T02:11:07;-2.80;99.90
58983;DHT22;44771;49.982;8.560;2022-12-11T02:16:17;-2.60;99.90
58983;DHT22;44771;49.982;8.560;2022-12-11T02:21:24;-2.60;99.90
58983;DHT22;44771;49.982;8.560;2022-12-11T02:32:02;-2.90;99.90
58983;DHT22;44771;49.982;8.560;2022-12-11T02:37:10;-3.00;99.90
58983;DHT22;44771;49.982;8.560;2022-12-11T02:42:13;-3.00;99.90
58983;DHT22;44771;49.982;8.560;2022-12-11T02:47:18;-2.60;99.90
58983;DHT22;44771;49.982;8.560;2022-12-11T02:52:22;-2.70;99.90
58983;DHT22;44771;49.982;8.560;2022-12-11T02:57:28;-2.70;99.90
58983;DHT22;44771;49.982;8.560;2022-12-11T03:02:33;-2.40;99.90
58983;DHT22;44771;49.982;8.560;2022-12-11T03:07:37;-2.20;99.90
58983;DHT22;44771;49.982;8.560;2022-12-11T03:12:43;-2.20;99.90
58983;DHT22;44771;49.982;8.560;2022-12-11T03:18:02;-2.50;99.90
58983;DHT22;44771;49.982;8.560;2022-12-11T03:23:11;-2.60;99.90
58983;DHT22;44771;49.982;8.560;2022-12-11T03:28:19;-2.60;99.90
58983;DHT22;44771;49.982;8.560;2022-12-11T03:33:25;-2.60;99.90
58983;DHT22;44771;49.982;8.560;2022-12-11T03:38:31;-2.60;99.90
58983;DHT22;44771;49.982;8.560;2022-12-11T03:43:37;-2.50;99.90
58983;DHT22;44771;49.982;8.560;2022-12-11T03:48:45;-2.30;99.90
58983;DHT22;44771;49.982;8.560;2022-12-11T03:53:48;-2.40;99.90
58983;DHT22;44771;49.982;8.560;2022-12-11T03:58:49;-2.40;99.90
58983;DHT22;44771;49.982;8.560;2022-12-11T04:03:52;-2.20;99.90
58983;DHT22;44771;49.982;8.560;2022-12-11T04:08:54;-2.30;99.90
58983;DHT22;44771;49.982;8.560;2022-12-11T04:13:56;-2.20;99.90
58983;DHT22;44771;49.982;8.560;2022-12-11T04:18:59;-2.10;99.90
58983;DHT22;44771;49.982;8.560;2022-12-11T04:24:00;-2.20;99.90
58983;DHT22;44771;49.982;8.560;2022-12-11T04:29:02;-2.30;99.90
58983;DHT22;44771;49.982;8.560;2022-12-11T04:34:05;-2.30;99.90
58983;DHT22;44771;49.982;8.560;2022-12-11T04:39:07;-2.20;99.90
58983;DHT22;44771;49.982;8.560;2022-12-11T04:44:09;-2.20;99.90
58983;DHT22;44771;49.982;8.560;2022-12-11T04:49:12;-2.30;99.90
58983;DHT22;44771;49.982;8.560;2022-12-11T04:54:14;-2.20;99.90
58983;DHT22;44771;49.982;8.560;2022-12-11T04:59:15;-2.20;99.90
58983;DHT22;44771;49.982;8.560;2022-12-11T05:04:18;-2.20;99.90
58983;DHT22;44771;49.982;8.560;2022-12-11T05:09:20;-2.10;99.90
58983;DHT22;44771;49.982;8.560;2022-12-11T05:14:22;-2.00;99.90
58983;DHT22;44771;49.982;8.560;2022-12-11T05:19:25;-2.00;99.90
58983;DHT22;44771;49.982;8.560;2022-12-11T05:24:27;-2.10;99.90
58983;DHT22;44771;49.982;8.560;2022-12-11T05:29:29;-2.10;99.90
58983;DHT22;44771;49.982;8.560;2022-12-11T05:34:32;-2.10;99.90
58983;DHT22;44771;49.982;8.560;2022-12-11T05:39:42;-2.10;99.90
58983;DHT22;44771;49.982;8.560;2022-12-11T05:44:44;-2.10;99.90
58983;DHT22;44771;49.982;8.560;2022-12-11T05:49:47;-2.10;99.90
58983;DHT22;44771;49.982;8.560;2022-12-11T05:54:49;-2.10;99.90
58983;DHT22;44771;49.982;8.560;2022-12-11T05:59:51;-2.10;99.90
58983;DHT22;44771;49.982;8.560;2022-12-11T06:04:54;-2.10;99.90
58983;DHT22;44771;49.982;8.560;2022-12-11T06:09:56;-2.10;99.90
58983;DHT22;44771;49.982;8.560;2022-12-11T06:14:57;-2.00;99.90
58983;DHT22;44771;49.982;8.560;2022-12-11T06:20:01;-2.00;99.90
58983;DHT22;44771;49.982;8.560;2022-12-11T06:25:03;-2.00;99.90
58983;DHT22;44771;49.982;8.560;2022-12-11T06:30:06;-2.00;99.90
58983;DHT22;44771;49.982;8.560;2022-12-11T06:35:10;-2.00;99.90
58983;DHT22;44771;49.982;8.560;2022-12-11T06:40:12;-2.00;99.90
58983;DHT22;44771;49.982;8.560;2022-12-11T06:45:14;-2.00;99.90
58983;DHT22;44771;49.982;8.560;2022-12-11T06:50:17;-1.90;99.90
58983;DHT22;44771;49.982;8.560;2022-12-11T06:55:19;-1.90;99.90
58983;DHT22;44771;49.982;8.560;2022-12-11T07:00:20;-1.90;99.90
58983;DHT22;44771;49.982;8.560;2022-12-11T07:05:24;-1.90;99.90
58983;DHT22;44771;49.982;8.560;2022-12-11T07:10:25;-1.80;99.90
58983;DHT22;44771;49.982;8.560;2022-12-11T07:15:27;-1.80;99.90
58983;DHT22;44771;49.982;8.560;2022-12-11T07:20:30;-1.80;99.90
58983;DHT22;44771;49.982;8.560;2022-12-11T07:25:32;-1.80;99.90
58983;DHT22;44771;49.982;8.560;2022-12-11T07:30:34;-1.80;99.90
58983;DHT22;44771;49.982;8.560;2022-12-11T07:35:39;-1.80;99.90
58983;DHT22;44771;49.982;8.560;2022-12-11T07:40:41;-1.80;99.90
58983;DHT22;44771;49.982;8.560;2022-12-11T07:45:43;-1.70;99.90
58983;DHT22;44771;49.982;8.560;2022-12-11T07:50:46;-1.70;99.90
58983;DHT22;44771;49.982;8.560;2022-12-11T07:55:47;-1.80;99.90
58983;DHT22;44771;49.982;8.560;2022-12-11T08:00:49;-1.80;99.90
58983;DHT22;44771;49.982;8.560;2022-12-11T08:05:52;-1.70;99.90
58983;DHT22;44771;49.982;8.560;2022-12-11T08:10:54;-1.60;99.90
58983;DHT22;44771;49.982;8.560;2022-12-11T08:15:56;-1.50;99.90
58983;DHT22;44771;49.982;8.560;2022-12-11T08:21:03;-1.50;99.90
58983;DHT22;44771;49.982;8.560;2022-12-11T08:26:06;-1.50;99.90
58983;DHT22;44771;49.982;8.560;2022-12-11T08:31:10;-1.50;99.90
58983;DHT22;44771;49.982;8.560;2022-12-11T08:36:16;-1.50;99.90
58983;DHT22;44771;49.982;8.560;2022-12-11T08:41:19;-1.30;99.90
58983;DHT22;44771;49.982;8.560;2022-12-11T08:46:22;-1.40;99.90
58983;DHT22;44771;49.982;8.560;2022-12-11T08:51:27;-1.30;99.90
58983;DHT22;44771;49.982;8.560;2022-12-11T08:56:29;-1.20;99.90
58983;DHT22;44771;49.982;8.560;2022-12-11T09:01:31;-1.20;99.90
58983;DHT22;44771;49.982;8.560;2022-12-11T09:06:34;-1.20;99.90
58983;DHT22;44771;49.982;8.560;2022-12-11T09:11:36;-1.10;99.90
58983;DHT22;44771;49.982;8.560;2022-12-11T09:16:39;-1.00;99.90
58983;DHT22;44771;49.982;8.560;2022-12-11T09:21:43;-1.00;99.90
58983;DHT22;44771;49.982;8.560;2022-12-11T09:26:45;-1.00;99.90
58983;DHT22;44771;49.982;8.560;2022-12-11T09:31:46;-0.90;99.90
58983;DHT22;44771;49.982;8.560;2022-12-11T09:36:50;-0.80;99.90
58983;DHT22;44771;49.982;8.560;2022-12-11T09:41:54;-0.70;99.90
58983;DHT22;44771;49.982;8.560;2022-12-11T09:47:00;-0.70;99.90
58983;DHT22;44771;49.982;8.560;2022-12-11T09:52:11;-0.70;99.90
58983;DHT22;44771;49.982;8.560;2022-12-11T09:57:23;-0.70;99.90
58983;DHT22;44771;49.982;8.560;2022-12-11T10:02:30;-0.80;99.90
58983;DHT22;44771;49.982;8.560;2022-12-11T10:07:39;-0.90;99.90
58983;DHT22;44771;49.982;8.560;2022-12-11T10:12:50;-0.90;99.90
58983;DHT22;44771;49.982;8.560;2022-12-11T10:17:56;-0.90;99.90
58983;DHT22;44771;49.982;8.560;2022-12-11T10:23:08;-0.90;99.90
58983;DHT22;44771;49.982;8.560;2022-12-11T10:28:14;-0.90;99.90
58983;DHT22;44771;49.982;8.560;2022-12-11T10:33:19;-0.90;99.90
58983;DHT22;44771;49.982;8.560;2022-12-11T10:38:26;-0.90;99.90
58983;DHT22;44771;49.982;8.560;2022-12-11T10:43:33;-0.90;99.90
58983;DHT22;44771;49.982;8.560;2022-12-11T10:48:44;-0.70;99.90
58983;DHT22;44771;49.982;8.560;2022-12-11T10:53:50;-0.70;99.90
58983;DHT22;44771;49.982;8.560;2022-12-11T10:58:54;-0.70;99.90
58983;DHT22;44771;49.982;8.560;2022-12-11T11:04:01;-0.80;99.90
58983;DHT22;44771;49.982;8.560;2022-12-11T11:09:29;-0.80;99.90
58983;DHT22;44771;49.982;8.560;2022-12-11T11:14:31;-0.70;99.90
58983;DHT22;44771;49.982;8.560;2022-12-11T11:19:34;-0.70;99.90
58983;DHT22;44771;49.982;8.560;2022-12-11T11:24:40;-0.70;99.90
58983;DHT22;44771;49.982;8.560;2022-12-11T11:29:43;-0.60;99.90
58983;DHT22;44771;49.982;8.560;2022-12-11T11:34:52;-0.70;99.90
58983;DHT22;44771;49.982;8.560;2022-12-11T11:39:58;-0.70;99.90
58983;DHT22;44771;49.982;8.560;2022-12-11T11:45:05;-0.70;99.90
58983;DHT22;44771;49.982;8.560;2022-12-11T11:50:15;-0.70;99.90
58983;DHT22;44771;49.982;8.560;2022-12-11T11:55:37;-0.80;99.90
58983;DHT22;44771;49.982;8.560;2022-12-11T12:00:40;-0.60;99.90
58983;DHT22;44771;49.982;8.560;2022-12-11T12:05:44;-0.50;99.90
58983;DHT22;44771;49.982;8.560;2022-12-11T12:10:59;-0.50;99.90
58983;DHT22;44771;49.982;8.560;2022-12-11T12:16:08;-0.50;99.90
58983;DHT22;44771;49.982;8.560;2022-12-11T12:21:34;-0.70;99.90
58983;DHT22;44771;49.982;8.560;2022-12-11T12:26:39;-0.70;99.90
58983;DHT22;44771;49.982;8.560;2022-12-11T12:31:52;-0.70;99.90
58983;DHT22;44771;49.982;8.560;2022-12-11T12:37:01;-0.70;99.90
58983;DHT22;44771;49.982;8.560;2022-12-11T12:42:12;-0.60;99.90
58983;DHT22;44771;49.982;8.560;2022-12-11T12:47:18;-0.60;99.90
58983;DHT22;44771;49.982;8.560;2022-12-11T12:52:25;-0.70;99.90
58983;DHT22;44771;49.982;8.560;2022-12-11T12:57:30;-0.60;99.90
58983;DHT22;44771;49.982;8.560;2022-12-11T13:02:32;-0.60;99.90
58983;DHT22;44771;49.982;8.560;2022-12-11T13:07:34;-0.70;99.90
58983;DHT22;44771;49.982;8.560;2022-12-11T13:12:43;-0.60;99.90
58983;DHT22;44771;49.982;8.560;2022-12-11T13:17:45;-0.70;99.90
58983;DHT22;44771;49.982;8.560;2022-12-11T13:22:50;-0.60;99.90
58983;DHT22;44771;49.982;8.560;2022-12-11T13:28:03;-0.60;99.90
58983;DHT22;44771;49.982;8.560;2022-12-11T13:33:12;-0.50;99.90
58983;DHT22;44771;49.982;8.560;2022-12-11T13:38:18;-0.40;99.90
58983;DHT22;44771;49.982;8.560;2022-12-11T13:43:24;-0.40;99.90
58983;DHT22;44771;49.982;8.560;2022-12-11T13:48:31;-0.30;99.90
58983;DHT22;44771;49.982;8.560;2022-12-11T13:53:34;-0.30;99.90
58983;DHT22;44771;49.982;8.560;2022-12-11T13:58:38;-0.30;99.90
58983;DHT22;44771;49.982;8.560;2022-12-11T14:03:42;-0.30;99.90
58983;DHT22;44771;49.982;8.560;2022-12-11T14:08:50;-0.40;99.90
58983;DHT22;44771;49.982;8.560;2022-12-11T14:13:54;-0.50;99.90
58983;DHT22;44771;49.982;8.560;2022-12-11T14:19:01;-0.60;99.90
58983;DHT22;44771;49.982;8.560;2022-12-11T14:24:04;-0.60;99.90
58983;DHT22;44771;49.982;8.560;2022-12-11T14:29:23;-0.60;99.90
58983;DHT22;44771;49.982;8.560;2022-12-11T14:34:29;-0.70;99.90
58983;DHT22;44771;49.982;8.560;2022-12-11T14:39:35;-0.70;99.90
58983;DHT22;44771;49.982;8.560;2022-12-11T14:44:45;-0.70;99.90
58983;DHT22;44771;49.982;8.560;2022-12-11T14:49:50;-0.70;99.90
58983;DHT22;44771;49.982;8.560;2022-12-11T14:54:59;-0.80;99.90
58983;DHT22;44771;49.982;8.560;2022-12-11T15:00:32;-0.80;99.90
58983;DHT22;44771;49.982;8.560;2022-12-11T15:05:48;-0.80;99.90
58983;DHT22;44771;49.982;8.560;2022-12-11T15:11:08;-0.80;99.90
58983;DHT22;44771;49.982;8.560;2022-12-11T15:16:13;-0.80;99.90
58983;DHT22;44771;49.982;8.560;2022-12-11T15:21:15;-0.80;99.90
58983;DHT22;44771;49.982;8.560;2022-12-11T15:26:18;-0.80;99.90
58983;DHT22;44771;49.982;8.560;2022-12-11T15:31:25;-0.90;99.90
58983;DHT22;44771;49.982;8.560;2022-12-11T15:36:31;-0.90;99.90
58983;DHT22;44771;49.982;8.560;2022-12-11T15:41:33;-0.80;99.90
58983;DHT22;44771;49.982;8.560;2022-12-11T15:46:36;-0.90;99.90
58983;DHT22;44771;49.982;8.560;2022-12-11T15:51:38;-0.80;99.90
58983;DHT22;44771;49.982;8.560;2022-12-11T15:56:44;-0.80;99.90
58983;DHT22;44771;49.982;8.560;2022-12-11T16:01:47;-0.80;99.90
58983;DHT22;44771;49.982;8.560;2022-12-11T16:06:49;-0.90;99.90
58983;DHT22;44771;49.982;8.560;2022-12-11T16:11:51;-0.80;99.90
58983;DHT22;44771;49.982;8.560;2022-12-11T16:16:54;-0.90;99.90
58983;DHT22;44771;49.982;8.560;2022-12-11T16:21:56;-0.90;99.90
58983;DHT22;44771;49.982;8.560;2022-12-11T16:26:58;-0.90;99.90
58983;DHT22;44771;49.982;8.560;2022-12-11T16:32:01;-1.00;99.90
58983;DHT22;44771;49.982;8.560;2022-12-11T16:37:03;-1.00;99.90
58983;DHT22;44771;49.982;8.560;2022-12-11T16:42:05;-1.10;99.90
58983;DHT22;44771;49.982;8.560;2022-12-11T16:47:08;-1.20;99.90
58983;DHT22;44771;49.982;8.560;2022-12-11T16:52:10;-1.20;99.90
58983;DHT22;44771;49.982;8.560;2022-12-11T16:57:12;-1.20;99.90
58983;DHT22;44771;49.982;8.560;2022-12-11T17:02:15;-1.20;99.90
58983;DHT22;44771;49.982;8.560;2022-12-11T17:07:17;-1.20;99.90
58983;DHT22;44771;49.982;8.560;2022-12-11T17:12:19;-1.10;99.90
58983;DHT22;44771;49.982;8.560;2022-12-11T17:17:22;-0.90;99.90
58983;DHT22;44771;49.982;8.560;2022-12-11T17:22:24;-0.70;99.90
58983;DHT22;44771;49.982;8.560;2022-12-11T17:27:25;-0.80;99.90
58983;DHT22;44771;49.982;8.560;2022-12-11T17:32:28;-0.90;99.90
58983;DHT22;44771;49.982;8.560;2022-12-11T17:37:30;-1.10;99.90
58983;DHT22;44771;49.982;8.560;2022-12-11T17:42:32;-1.20;99.90
58983;DHT22;44771;49.982;8.560;2022-12-11T17:47:36;-1.10;99.90
58983;DHT22;44771;49.982;8.560;2022-12-11T17:52:37;-1.20;99.90
58983;DHT22;44771;49.982;8.560;2022-12-11T17:57:44;-1.30;99.90
58983;DHT22;44771;49.982;8.560;2022-12-11T18:02:48;-1.30;99.90
58983;DHT22;44771;49.982;8.560;2022-12-11T18:07:50;-1.40;99.90
58983;DHT22;44771;49.982;8.560;2022-12-11T18:12:58;-1.50;99.90
58983;DHT22;44771;49.982;8.560;2022-12-11T18:18:01;-1.80;99.90
58983;DHT22;44771;49.982;8.560;2022-12-11T18:23:04;-1.90;99.90
58983;DHT22;44771;49.982;8.560;2022-12-11T18:28:06;-2.00;99.90
58983;DHT22;44771;49.982;8.560;2022-12-11T18:33:09;-2.00;99.90
58983;DHT22;44771;49.982;8.560;2022-12-11T18:38:10;-2.10;99.90
58983;DHT22;44771;49.982;8.560;2022-12-11T18:43:12;-2.10;99.90
58983;DHT22;44771;49.982;8.560;2022-12-11T18:48:15;-2.10;99.90
58983;DHT22;44771;49.982;8.560;2022-12-11T18:53:18;-2.10;99.90
58983;DHT22;44771;49.982;8.560;2022-12-11T18:58:19;-2.00;99.90
58983;DHT22;44771;49.982;8.560;2022-12-11T19:03:24;-2.00;99.90
58983;DHT22;44771;49.982;8.560;2022-12-11T19:08:26;-2.10;99.90
58983;DHT22;44771;49.982;8.560;2022-12-11T19:13:27;-2.20;99.90
58983;DHT22;44771;49.982;8.560;2022-12-11T19:18:31;-2.20;99.90
58983;DHT22;44771;49.982;8.560;2022-12-11T19:23:32;-2.30;99.90
58983;DHT22;44771;49.982;8.560;2022-12-11T19:28:34;-2.40;99.90
58983;DHT22;44771;49.982;8.560;2022-12-11T19:33:37;-2.40;99.90
58983;DHT22;44771;49.982;8.560;2022-12-11T19:38:40;-2.40;99.90
58983;DHT22;44771;49.982;8.560;2022-12-11T19:43:42;-2.40;99.90
58983;DHT22;44771;49.982;8.560;2022-12-11T19:48:47;-2.30;99.90
58983;DHT22;44771;49.982;8.560;2022-12-11T19:53:50;-2.20;99.90
58983;DHT22;44771;49.982;8.560;2022-12-11T19:58:52;-2.00;99.90
58983;DHT22;44771;49.982;8.560;2022-12-11T20:03:57;-1.90;99.90
58983;DHT22;44771;49.982;8.560;2022-12-11T20:08:59;-1.80;99.90
58983;DHT22;44771;49.982;8.560;2022-12-11T20:14:01;-1.60;99.90
58983;DHT22;44771;49.982;8.560;2022-12-11T20:19:04;-1.60;99.90
58983;DHT22;44771;49.982;8.560;2022-12-11T20:24:06;-1.50;99.90
58983;DHT22;44771;49.982;8.560;2022-12-11T20:29:08;-1.20;99.90
58983;DHT22;44771;49.982;8.560;2022-12-11T20:34:14;-1.20;99.90
58983;DHT22;44771;49.982;8.560;2022-12-11T20:39:16;-1.30;99.90
58983;DHT22;44771;49.982;8.560;2022-12-11T20:44:18;-1.40;99.90
58983;DHT22;44771;49.982;8.560;2022-12-11T20:49:24;-1.50;99.90
58983;DHT22;44771;49.982;8.560;2022-12-11T20:54:28;-1.50;99.90
58983;DHT22;44771;49.982;8.560;2022-12-11T20:59:30;-1.50;99.90
58983;DHT22;44771;49.982;8.560;2022-12-11T21:04:35;-1.50;99.90
58983;DHT22;44771;49.982;8.560;2022-12-11T21:09:38;-1.50;99.90
58983;DHT22;44771;49.982;8.560;2022-12-11T21:14:40;-1.40;99.90
58983;DHT22;44771;49.982;8.560;2022-12-11T21:19:43;-1.40;99.90
58983;DHT22;44771;49.982;8.560;2022-12-11T21:24:45;-1.40;99.90
58983;DHT22;44771;49.982;8.560;2022-12-11T21:29:46;-1.40;99.90
58983;DHT22;44771;49.982;8.560;2022-12-11T21:34:50;-1.40;99.90
58983;DHT22;44771;49.982;8.560;2022-12-11T21:39:54;-1.40;99.90
58983;DHT22;44771;49.982;8.560;2022-12-11T21:44:55;-1.50;99.90
58983;DHT22;44771;49.982;8.560;2022-12-11T21:50:19;-1.50;99.90
58983;DHT22;44771;49.982;8.560;2022-12-11T21:55:20;-1.50;99.90
58983;DHT22;44771;49.982;8.560;2022-12-11T22:00:22;-1.40;99.90
58983;DHT22;44771;49.982;8.560;2022-12-11T22:05:25;-1.40;99.90
58983;DHT22;44771;49.982;8.560;2022-12-11T22:10:27;-1.40;99.90
58983;DHT22;44771;49.982;8.560;2022-12-11T22:15:29;-1.50;99.90
58983;DHT22;44771;49.982;8.560;2022-12-11T22:20:32;-1.60;99.90
58983;DHT22;44771;49.982;8.560;2022-12-11T22:25:34;-1.60;99.90
58983;DHT22;44771;49.982;8.560;2022-12-11T22:30:37;-1.70;99.90
58983;DHT22;44771;49.982;8.560;2022-12-11T22:35:40;-1.60;99.90
58983;DHT22;44771;49.982;8.560;2022-12-11T22:40:42;-1.80;99.90
58983;DHT22;44771;49.982;8.560;2022-12-11T22:45:43;-1.90;99.90
58983;DHT22;44771;49.982;8.560;2022-12-11T22:50:46;-1.90;99.90
58983;DHT22;44771;49.982;8.560;2022-12-11T22:55:48;-2.00;99.90
58983;DHT22;44771;49.982;8.560;2022-12-11T23:00:50;-2.00;99.90
58983;DHT22;44771;49.982;8.560;2022-12-11T23:05:53;-2.00;99.90
58983;DHT22;44771;49.982;8.560;2022-12-11T23:10:55;-2.00;99.90
58983;DHT22;44771;49.982;8.560;2022-12-11T23:15:57;-2.10;99.90
58983;DHT22;44771;49.982;8.560;2022-12-11T23:21:00;-2.20;99.90
58983;DHT22;44771;49.982;8.560;2022-12-11T23:26:02;-2.20;99.90
58983;DHT22;44771;49.982;8.560;2022-12-11T23:31:04;-2.20;99.90
58983;DHT22;44771;49.982;8.560;2022-12-11T23:36:08;-2.10;99.90
58983;DHT22;44771;49.982;8.560;2022-12-11T23:41:12;-2.00;99.90
58983;DHT22;44771;49.982;8.560;2022-12-11T23:46:16;-1.90;99.90
58983;DHT22;44771;49.982;8.560;2022-12-11T23:51:21;-1.90;99.90
58983;DHT22;44771;49.982;8.560;2022-12-11T23:56:24;-1.90;99.90
